Money, Mississippi
Current Conditions -  °F | °C
As of 1:14 AM on Sunday 26 Oct 2014 (Local Time) from KGWO Reporting Station
Haze Haze  
Wind Chill: 60°   Ceiling: Unl
Heat Index: 60°   Visibility: 3mi
Dew Point: 58°   Wind: 0mph
Humidity: 93%   Direction: NA
Pressure: 30.04"   Gusts: NA
Location:  33.65°N, 90.21°W
Report Text: KGWO 260614Z AUTO 00000KT 3SM BR CLR 16/14 A3004 RMK AO2 T01560144 TSNO
Loading
Personal Weather Stations






























Interactive Weather Map
Tropical Storm Tracking
New forecast layout! Learn more

10-Day Weather Forecast

Advertisements
Track Severe Weather on mobile